sensor_id;sensor_type;location;lat;lon;timestamp;pressure;altitude;pressure_sealevel;temperature;humidity
56518;BME280;42419;48.760;2.322;2023-02-18T00:02:11;102114.88;;;21.70;39.71
56518;BME280;42419;48.760;2.322;2023-02-18T00:04:36;102136.97;;;21.81;39.44
56518;BME280;42419;48.760;2.322;2023-02-18T00:07:02;102128.06;;;21.79;39.67
56518;BME280;42419;48.760;2.322;2023-02-18T00:09:27;102098.94;;;21.64;39.49
56518;BME280;42419;48.760;2.322;2023-02-18T00:11:52;102136.13;;;21.78;39.49
56518;BME280;42419;48.760;2.322;2023-02-18T00:14:18;102111.31;;;21.70;39.54
56518;BME280;42419;48.760;2.322;2023-02-18T00:16:44;102131.72;;;21.77;39.53
56518;BME280;42419;48.760;2.322;2023-02-18T00:19:13;102105.25;;;21.63;39.63
56518;BME280;42419;48.760;2.322;2023-02-18T00:21:39;102134.41;;;21.75;39.45
56518;BME280;42419;48.760;2.322;2023-02-18T00:24:06;102131.75;;;21.75;39.48
56518;BME280;42419;48.760;2.322;2023-02-18T00:26:32;102110.59;;;21.63;39.54
56518;BME280;42419;48.760;2.322;2023-02-18T00:28:58;102132.66;;;21.74;39.18
56518;BME280;42419;48.760;2.322;2023-02-18T00:31:27;102109.63;;;21.66;39.37
56518;BME280;42419;48.760;2.322;2023-02-18T00:33:53;102115.84;;;21.68;39.50
56518;BME280;42419;48.760;2.322;2023-02-18T00:36:20;102127.28;;;21.74;39.35
56518;BME280;42419;48.760;2.322;2023-02-18T00:38:51;102103.38;;;21.65;38.99
56518;BME280;42419;48.760;2.322;2023-02-18T00:41:17;102129.09;;;21.74;39.25
56518;BME280;42419;48.760;2.322;2023-02-18T00:43:42;102128.19;;;21.73;39.27
56518;BME280;42419;48.760;2.322;2023-02-18T00:46:09;102117.59;;;21.69;39.31
56518;BME280;42419;48.760;2.322;2023-02-18T00:48:35;102128.19;;;21.73;39.16
56518;BME280;42419;48.760;2.322;2023-02-18T00:51:01;102125.53;;;21.73;39.18
56518;BME280;42419;48.760;2.322;2023-02-18T00:53:27;102113.06;;;21.72;39.20
56518;BME280;42419;48.760;2.322;2023-02-18T00:55:53;102112.13;;;21.73;39.24
56518;BME280;42419;48.760;2.322;2023-02-18T00:58:18;102111.25;;;21.73;39.20
56518;BME280;42419;48.760;2.322;2023-02-18T01:00:44;102115.75;;;21.72;39.07
56518;BME280;42419;48.760;2.322;2023-02-18T01:03:10;102111.25;;;21.73;39.09
56518;BME280;42419;48.760;2.322;2023-02-18T01:05:37;102091.88;;;21.62;39.08
56518;BME280;42419;48.760;2.322;2023-02-18T01:08:03;102121.09;;;21.72;39.15
56518;BME280;42419;48.760;2.322;2023-02-18T01:10:29;102112.19;;;21.72;38.99
56518;BME280;42419;48.760;2.322;2023-02-18T01:12:54;102090.97;;;21.63;38.79
56518;BME280;42419;48.760;2.322;2023-02-18T01:15:20;102106.81;;;21.72;39.01
56518;BME280;42419;48.760;2.322;2023-02-18T01:17:45;102105.94;;;21.71;39.04
56518;BME280;42419;48.760;2.322;2023-02-18T01:20:12;102092.53;;;21.71;38.93
56518;BME280;42419;48.760;2.322;2023-02-18T01:22:37;102090.91;;;21.64;38.81
56518;BME280;42419;48.760;2.322;2023-02-18T01:25:03;102099.72;;;21.69;38.90
56518;BME280;42419;48.760;2.322;2023-02-18T01:27:29;102090.06;;;21.62;39.33
56518;BME280;42419;48.760;2.322;2023-02-18T01:29:54;102094.31;;;21.71;38.81
56518;BME280;42419;48.760;2.322;2023-02-18T01:32:20;102105.94;;;21.71;38.90
56518;BME280;42419;48.760;2.322;2023-02-18T01:34:45;102076.75;;;21.59;38.91
56518;BME280;42419;48.760;2.322;2023-02-18T01:37:11;102101.47;;;21.70;38.78
56518;BME280;42419;48.760;2.322;2023-02-18T01:39:37;102108.63;;;21.70;38.77
56518;BME280;42419;48.760;2.322;2023-02-18T01:42:02;102104.19;;;21.69;38.69
56518;BME280;42419;48.760;2.322;2023-02-18T01:44:28;102097.00;;;21.71;38.76
56518;BME280;42419;48.760;2.322;2023-02-18T01:46:54;102084.72;;;21.62;38.71
56518;BME280;42419;48.760;2.322;2023-02-18T01:49:24;102077.47;;;21.66;38.78
56518;BME280;42419;48.760;2.322;2023-02-18T01:51:54;102084.50;;;21.70;38.61
56518;BME280;42419;48.760;2.322;2023-02-18T01:54:28;102086.31;;;21.69;38.51
56518;BME280;42419;48.760;2.322;2023-02-18T01:57:00;102089.00;;;21.69;38.74
56518;BME280;42419;48.760;2.322;2023-02-18T01:59:57;102076.53;;;21.68;38.61
56518;BME280;42419;48.760;2.322;2023-02-18T02:02:26;102076.53;;;21.68;38.58
56518;BME280;42419;48.760;2.322;2023-02-18T02:04:52;102072.97;;;21.68;38.71
56518;BME280;42419;48.760;2.322;2023-02-18T02:07:20;102068.50;;;21.68;38.54
56518;BME280;42419;48.760;2.322;2023-02-18T02:09:47;102054.31;;;21.63;38.57
56518;BME280;42419;48.760;2.322;2023-02-18T02:15:02;102067.59;;;21.68;38.68
56518;BME280;42419;48.760;2.322;2023-02-18T02:17:36;102063.13;;;21.68;38.60
56518;BME280;42419;48.760;2.322;2023-02-18T02:26:09;102057.78;;;21.67;38.48
56518;BME280;42419;48.760;2.322;2023-02-18T02:34:34;102044.41;;;21.65;38.35
56518;BME280;42419;48.760;2.322;2023-02-18T02:40:14;102039.06;;;21.65;38.45
56518;BME280;42419;48.760;2.322;2023-02-18T02:42:49;102017.97;;;21.51;38.41
56518;BME280;42419;48.760;2.322;2023-02-18T02:45:28;102032.81;;;21.65;38.34
56518;BME280;42419;48.760;2.322;2023-02-18T02:52:59;102024.75;;;21.66;38.44
56518;BME280;42419;48.760;2.322;2023-02-18T02:55:26;102024.75;;;21.66;38.25
56518;BME280;42419;48.760;2.322;2023-02-18T02:57:53;102016.69;;;21.66;38.31
56518;BME280;42419;48.760;2.322;2023-02-18T03:00:23;102014.91;;;21.67;38.37
56518;BME280;42419;48.760;2.322;2023-02-18T03:09:03;102015.81;;;21.66;38.36
56518;BME280;42419;48.760;2.322;2023-02-18T03:11:45;102013.13;;;21.66;38.25
56518;BME280;42419;48.760;2.322;2023-02-18T03:14:30;102017.63;;;21.65;38.29
56518;BME280;42419;48.760;2.322;2023-02-18T03:17:10;102016.72;;;21.65;38.19
56518;BME280;42419;48.760;2.322;2023-02-18T03:19:41;102015.81;;;21.66;38.33
56518;BME280;42419;48.760;2.322;2023-02-18T03:22:11;102011.38;;;21.65;38.17
56518;BME280;42419;48.760;2.322;2023-02-18T03:24:41;101988.50;;;21.51;38.27
56518;BME280;42419;48.760;2.322;2023-02-18T03:27:23;102013.13;;;21.66;38.19
56518;BME280;42419;48.760;2.322;2023-02-18T03:29:55;102012.25;;;21.65;38.14
56518;BME280;42419;48.760;2.322;2023-02-18T03:32:22;102006.00;;;21.65;38.19
56518;BME280;42419;48.760;2.322;2023-02-18T03:34:55;102002.41;;;21.66;38.14
56518;BME280;42419;48.760;2.322;2023-02-18T03:37:22;102009.56;;;21.65;38.16
56518;BME280;42419;48.760;2.322;2023-02-18T03:39:51;102006.91;;;21.65;38.06
56518;BME280;42419;48.760;2.322;2023-02-18T03:42:24;102009.56;;;21.65;38.06
56518;BME280;42419;48.760;2.322;2023-02-18T03:44:50;102007.75;;;21.67;38.13
56518;BME280;42419;48.760;2.322;2023-02-18T03:47:16;101980.38;;;21.55;38.10
56518;BME280;42419;48.760;2.322;2023-02-18T03:49:41;102004.19;;;21.67;38.00
56518;BME280;42419;48.760;2.322;2023-02-18T03:52:06;102009.56;;;21.65;37.76
56518;BME280;42419;48.760;2.322;2023-02-18T03:54:32;102003.31;;;21.65;37.97
56518;BME280;42419;48.760;2.322;2023-02-18T03:56:57;102004.22;;;21.65;38.01
56518;BME280;42419;48.760;2.322;2023-02-18T03:59:22;102000.66;;;21.65;38.08
56518;BME280;42419;48.760;2.322;2023-02-18T04:01:48;102002.41;;;21.66;37.90
56518;BME280;42419;48.760;2.322;2023-02-18T04:04:13;102008.66;;;21.66;37.98
56518;BME280;42419;48.760;2.322;2023-02-18T04:06:38;101997.22;;;21.60;37.93
56518;BME280;42419;48.760;2.322;2023-02-18T04:09:04;102006.91;;;21.65;38.01
56518;BME280;42419;48.760;2.322;2023-02-18T04:11:36;101999.72;;;21.66;37.89
56518;BME280;42419;48.760;2.322;2023-02-18T04:14:02;101982.13;;;21.56;38.03
56518;BME280;42419;48.760;2.322;2023-02-18T04:16:27;101999.72;;;21.66;37.92
56518;BME280;42419;48.760;2.322;2023-02-18T04:18:53;101992.66;;;21.63;37.91
56518;BME280;42419;48.760;2.322;2023-02-18T04:21:18;102000.63;;;21.66;37.96
56518;BME280;42419;48.760;2.322;2023-02-18T04:23:43;102001.50;;;21.67;37.63
56518;BME280;42419;48.760;2.322;2023-02-18T04:26:09;102000.66;;;21.65;37.79
56518;BME280;42419;48.760;2.322;2023-02-18T04:28:34;101975.91;;;21.55;37.82
56518;BME280;42419;48.760;2.322;2023-02-18T04:30:59;101988.34;;;21.58;37.73
56518;BME280;42419;48.760;2.322;2023-02-18T04:33:25;101991.00;;;21.59;37.79
56518;BME280;42419;48.760;2.322;2023-02-18T04:35:50;101997.06;;;21.66;37.79
56518;BME280;42419;48.760;2.322;2023-02-18T04:38:16;101996.16;;;21.65;37.75
56518;BME280;42419;48.760;2.322;2023-02-18T04:40:41;101998.84;;;21.65;37.67
56518;BME280;42419;48.760;2.322;2023-02-18T04:43:06;101997.06;;;21.66;38.15
56518;BME280;42419;48.760;2.322;2023-02-18T04:45:32;101995.28;;;21.65;37.83
56518;BME280;42419;48.760;2.322;2023-02-18T04:47:57;101997.94;;;21.66;37.76
56518;BME280;42419;48.760;2.322;2023-02-18T04:50:22;101997.09;;;21.64;37.72
56518;BME280;42419;48.760;2.322;2023-02-18T04:52:48;101986.44;;;21.61;37.76
56518;BME280;42419;48.760;2.322;2023-02-18T04:55:13;101989.94;;;21.65;37.58
56518;BME280;42419;48.760;2.322;2023-02-18T04:57:39;101992.59;;;21.65;37.72
56518;BME280;42419;48.760;2.322;2023-02-18T05:00:09;101993.59;;;21.62;37.77
56518;BME280;42419;48.760;2.322;2023-02-18T05:02:37;101991.78;;;21.63;37.63
56518;BME280;42419;48.760;2.322;2023-02-18T05:05:02;102003.31;;;21.65;37.60
56518;BME280;42419;48.760;2.322;2023-02-18T05:07:28;101997.97;;;21.65;37.44
56518;BME280;42419;48.760;2.322;2023-02-18T05:09:53;102008.69;;;21.65;37.58
56518;BME280;42419;48.760;2.322;2023-02-18T05:12:18;101988.34;;;21.58;37.53
56518;BME280;42419;48.760;2.322;2023-02-18T05:14:43;101997.97;;;21.65;37.58
56518;BME280;42419;48.760;2.322;2023-02-18T05:17:09;101998.91;;;21.64;37.58
56518;BME280;42419;48.760;2.322;2023-02-18T05:19:34;101981.22;;;21.57;37.55
56518;BME280;42419;48.760;2.322;2023-02-18T05:21:59;101994.38;;;21.66;37.50
56518;BME280;42419;48.760;2.322;2023-02-18T05:24:25;101995.28;;;21.65;37.45
56518;BME280;42419;48.760;2.322;2023-02-18T05:26:50;101998.84;;;21.65;37.46
56518;BME280;42419;48.760;2.322;2023-02-18T05:29:15;101998.97;;;21.61;37.52
56518;BME280;42419;48.760;2.322;2023-02-18T05:31:41;102005.13;;;21.64;37.53
56518;BME280;42419;48.760;2.322;2023-02-18T05:34:06;102002.50;;;21.63;37.42
56518;BME280;42419;48.760;2.322;2023-02-18T05:36:34;101998.09;;;21.60;37.46
56518;BME280;42419;48.760;2.322;2023-02-18T05:38:59;102005.13;;;21.64;37.44
56518;BME280;42419;48.760;2.322;2023-02-18T05:41:25;101998.03;;;21.63;37.48
56518;BME280;42419;48.760;2.322;2023-02-18T05:43:50;102009.63;;;21.64;37.36
56518;BME280;42419;48.760;2.322;2023-02-18T05:46:34;102007.81;;;21.64;37.34
56518;BME280;42419;48.760;2.322;2023-02-18T05:49:00;102006.97;;;21.64;37.47
56518;BME280;42419;48.760;2.322;2023-02-18T05:51:25;101998.03;;;21.63;37.33
56518;BME280;42419;48.760;2.322;2023-02-18T05:53:50;102002.44;;;21.64;37.32
56518;BME280;42419;48.760;2.322;2023-02-18T05:56:16;101990.13;;;21.57;37.28
56518;BME280;42419;48.760;2.322;2023-02-18T05:58:41;101993.66;;;21.59;37.10
56518;BME280;42419;48.760;2.322;2023-02-18T06:01:06;102001.59;;;21.64;37.38
56518;BME280;42419;48.760;2.322;2023-02-18T06:03:32;101992.00;;;21.55;37.01
56518;BME280;42419;48.760;2.322;2023-02-18T06:05:57;101989.34;;;21.53;37.22
56518;BME280;42419;48.760;2.322;2023-02-18T06:08:22;101998.03;;;21.63;37.28
56518;BME280;42419;48.760;2.322;2023-02-18T06:10:48;102003.38;;;21.63;37.12
56518;BME280;42419;48.760;2.322;2023-02-18T06:13:13;101979.50;;;21.54;37.07
56518;BME280;42419;48.760;2.322;2023-02-18T06:15:38;101998.94;;;21.62;37.32
56518;BME280;42419;48.760;2.322;2023-02-18T06:18:05;102006.97;;;21.64;37.14
56518;BME280;42419;48.760;2.322;2023-02-18T06:20:33;102003.38;;;21.63;37.21
56518;BME280;42419;48.760;2.322;2023-02-18T06:22:58;101999.75;;;21.64;37.12
56518;BME280;42419;48.760;2.322;2023-02-18T06:25:23;102002.50;;;21.63;37.21
56518;BME280;42419;48.760;2.322;2023-02-18T06:27:49;102003.38;;;21.63;37.24
56518;BME280;42419;48.760;2.322;2023-02-18T06:30:14;102007.81;;;21.64;37.08
56518;BME280;42419;48.760;2.322;2023-02-18T06:32:40;102009.66;;;21.62;37.07
56518;BME280;42419;48.760;2.322;2023-02-18T06:35:05;102001.66;;;21.61;37.05
56518;BME280;42419;48.760;2.322;2023-02-18T06:37:31;102008.75;;;21.63;37.11
56518;BME280;42419;48.760;2.322;2023-02-18T06:39:56;102003.38;;;21.63;36.96
56518;BME280;42419;48.760;2.322;2023-02-18T06:42:22;101991.88;;;21.60;36.92
56518;BME280;42419;48.760;2.322;2023-02-18T06:44:47;101996.22;;;21.64;36.93
56518;BME280;42419;48.760;2.322;2023-02-18T06:47:12;102004.28;;;21.64;36.99
56518;BME280;42419;48.760;2.322;2023-02-18T06:49:38;101991.03;;;21.56;36.85
56518;BME280;42419;48.760;2.322;2023-02-18T06:52:04;101998.91;;;21.64;36.99
56518;BME280;42419;48.760;2.322;2023-02-18T06:54:29;101979.41;;;21.57;36.80
56518;BME280;42419;48.760;2.322;2023-02-18T06:56:55;101992.59;;;21.65;36.83
56518;BME280;42419;48.760;2.322;2023-02-18T06:59:20;101997.09;;;21.64;36.92
56518;BME280;42419;48.760;2.322;2023-02-18T07:01:45;101981.22;;;21.57;37.02
56518;BME280;42419;48.760;2.322;2023-02-18T07:04:11;101996.16;;;21.65;36.95
56518;BME280;42419;48.760;2.322;2023-02-18T07:06:36;102003.31;;;21.66;36.85
56518;BME280;42419;48.760;2.322;2023-02-18T07:09:03;102001.63;;;21.62;37.16
56518;BME280;42419;48.760;2.322;2023-02-18T07:11:29;102006.84;;;21.68;37.13
56518;BME280;42419;48.760;2.322;2023-02-18T07:13:54;102010.34;;;21.70;37.62
56518;BME280;42419;48.760;2.322;2023-02-18T07:16:19;102013.88;;;21.72;37.35
56518;BME280;42419;48.760;2.322;2023-02-18T07:18:45;102011.09;;;21.75;37.69
56518;BME280;42419;48.760;2.322;2023-02-18T07:21:10;102009.31;;;21.76;37.47
56518;BME280;42419;48.760;2.322;2023-02-18T07:23:36;102013.63;;;21.81;37.57
56518;BME280;42419;48.760;2.322;2023-02-18T07:26:06;102013.53;;;21.84;37.61
56518;BME280;42419;48.760;2.322;2023-02-18T07:28:32;102020.69;;;21.85;37.79
56518;BME280;42419;48.760;2.322;2023-02-18T07:30:57;102034.88;;;21.90;37.82
56518;BME280;42419;48.760;2.322;2023-02-18T07:33:22;102031.25;;;21.91;37.79
56518;BME280;42419;48.760;2.322;2023-02-18T07:35:55;102025.13;;;21.86;37.29
56518;BME280;42419;48.760;2.322;2023-02-18T07:38:22;102006.66;;;21.74;37.08
56518;BME280;42419;48.760;2.322;2023-02-18T07:40:48;102021.84;;;21.74;37.17
56518;BME280;42419;48.760;2.322;2023-02-18T07:43:14;102018.59;;;21.63;36.90
56518;BME280;42419;48.760;2.322;2023-02-18T07:45:39;102016.91;;;21.59;36.54
56518;BME280;42419;48.760;2.322;2023-02-18T07:48:05;102025.88;;;21.56;36.72
56518;BME280;42419;48.760;2.322;2023-02-18T07:50:30;102022.53;;;21.48;36.43
56518;BME280;42419;48.760;2.322;2023-02-18T07:53:04;102008.59;;;21.34;36.65
56518;BME280;42419;48.760;2.322;2023-02-18T07:55:30;102018.47;;;21.32;36.04
56518;BME280;42419;48.760;2.322;2023-02-18T07:58:15;102022.97;;;21.30;36.02
56518;BME280;42419;48.760;2.322;2023-02-18T08:00:40;102024.00;;;21.24;35.89
56518;BME280;42419;48.760;2.322;2023-02-18T08:03:05;102016.16;;;21.15;35.74
56518;BME280;42419;48.760;2.322;2023-02-18T08:05:31;102022.47;;;21.13;35.50
56518;BME280;42419;48.760;2.322;2023-02-18T08:07:56;102013.03;;;20.96;35.51
56518;BME280;42419;48.760;2.322;2023-02-18T08:10:22;102017.75;;;20.85;34.28
56518;BME280;42419;48.760;2.322;2023-02-18T08:12:47;102045.50;;;20.81;34.41
56518;BME280;42419;48.760;2.322;2023-02-18T08:15:13;102048.38;;;20.72;34.87
56518;BME280;42419;48.760;2.322;2023-02-18T08:17:38;102028.22;;;20.56;34.89
56518;BME280;42419;48.760;2.322;2023-02-18T08:20:04;102043.31;;;20.57;34.47
56518;BME280;42419;48.760;2.322;2023-02-18T08:22:29;102044.44;;;20.47;34.67
56518;BME280;42419;48.760;2.322;2023-02-18T08:24:55;102040.97;;;20.40;35.00
56518;BME280;42419;48.760;2.322;2023-02-18T08:27:21;102048.94;;;20.45;35.21
56518;BME280;42419;48.760;2.322;2023-02-18T08:29:47;102055.16;;;20.45;35.24
56518;BME280;42419;48.760;2.322;2023-02-18T08:32:12;102054.28;;;20.45;35.49
56518;BME280;42419;48.760;2.322;2023-02-18T08:37:03;102049.44;;;20.17;nan
56518;BME280;42419;48.760;2.322;2023-02-18T08:39:33;102051.38;;;20.09;nan
56518;BME280;42419;48.760;2.322;2023-02-18T08:41:59;102046.94;;;20.08;nan
56518;BME280;42419;48.760;2.322;2023-02-18T08:44:25;102057.69;;;20.05;nan
56518;BME280;42419;48.760;2.322;2023-02-18T08:46:51;102054.91;;;20.11;nan
56518;BME280;42419;48.760;2.322;2023-02-18T08:49:16;102056.63;;;20.14;nan
56518;BME280;42419;48.760;2.322;2023-02-18T08:51:45;102054.78;;;20.17;nan
56518;BME280;42419;48.760;2.322;2023-02-18T08:54:10;102023.81;;;20.06;nan
56518;BME280;42419;48.760;2.322;2023-02-18T08:56:35;102044.09;;;20.17;nan
56518;BME280;42419;48.760;2.322;2023-02-18T08:59:00;102051.91;;;20.28;nan
56518;BME280;42419;48.760;2.322;2023-02-18T09:01:26;102061.66;;;20.31;nan
56518;BME280;42419;48.760;2.322;2023-02-18T09:03:51;102059.84;;;20.33;nan
56518;BME280;42419;48.760;2.322;2023-02-18T09:06:16;102062.50;;;20.34;nan
56518;BME280;42419;48.760;2.322;2023-02-18T09:08:42;102064.22;;;20.37;nan
56518;BME280;42419;48.760;2.322;2023-02-18T09:11:07;102071.28;;;20.39;nan
56518;BME280;42419;48.760;2.322;2023-02-18T09:13:35;102066.09;;;20.32;nan
56518;BME280;42419;48.760;2.322;2023-02-18T09:16:06;102059.84;;;20.33;nan
56518;BME280;42419;48.760;2.322;2023-02-18T09:18:32;102058.13;;;20.30;nan
56518;BME280;42419;48.760;2.322;2023-02-18T09:20:59;102066.97;;;20.34;nan
56518;BME280;42419;48.760;2.322;2023-02-18T09:23:26;102065.28;;;20.30;nan
56518;BME280;42419;48.760;2.322;2023-02-18T09:25:51;101990.31;;;19.88;nan
56518;BME280;42419;48.760;2.322;2023-02-18T09:28:17;102010.53;;;20.03;nan
56518;BME280;42419;48.760;2.322;2023-02-18T09:30:42;102057.91;;;20.39;nan
56518;BME280;42419;48.760;2.322;2023-02-18T09:33:07;102065.91;;;20.42;nan
56518;BME280;42419;48.760;2.322;2023-02-18T09:35:37;102054.50;;;20.33;nan
56518;BME280;42419;48.760;2.322;2023-02-18T09:38:03;102068.53;;;20.47;nan
56518;BME280;42419;48.760;2.322;2023-02-18T09:40:31;102066.66;;;20.50;nan
56518;BME280;42419;48.760;2.322;2023-02-18T09:42:59;102080.84;;;20.55;nan
56518;BME280;42419;48.760;2.322;2023-02-18T09:45:26;102069.25;;;20.55;nan
56518;BME280;42419;48.760;2.322;2023-02-18T09:47:52;102078.00;;;20.61;nan
56518;BME280;42419;48.760;2.322;2023-02-18T09:50:33;102082.50;;;20.61;nan
56518;BME280;42419;48.760;2.322;2023-02-18T09:53:01;102077.09;;;20.64;nan
56518;BME280;42419;48.760;2.322;2023-02-18T09:57:58;102080.59;;;20.66;nan
56518;BME280;42419;48.760;2.322;2023-02-18T10:00:37;102079.59;;;20.72;nan
56518;BME280;42419;48.760;2.322;2023-02-18T10:03:21;102065.44;;;20.67;nan
56518;BME280;42419;48.760;2.322;2023-02-18T10:08:31;102086.59;;;20.79;nan
56518;BME280;42419;48.760;2.322;2023-02-18T10:10:58;102080.22;;;20.84;nan
56518;BME280;42419;48.760;2.322;2023-02-18T10:13:27;102082.78;;;20.89;nan
56518;BME280;42419;48.760;2.322;2023-02-18T10:15:53;102093.41;;;20.93;nan
56518;BME280;42419;48.760;2.322;2023-02-18T10:20:48;102089.72;;;20.99;nan
56518;BME280;42419;48.760;2.322;2023-02-18T10:23:15;102084.38;;;20.99;nan
56518;BME280;42419;48.760;2.322;2023-02-18T10:25:43;102063.06;;;20.93;nan
56518;BME280;42419;48.760;2.322;2023-02-18T10:28:11;102072.72;;;21.01;nan
56518;BME280;42419;48.760;2.322;2023-02-18T10:30:41;102086.00;;;21.06;nan
56518;BME280;42419;48.760;2.322;2023-02-18T10:36:14;102089.41;;;21.13;nan
56518;BME280;42419;48.760;2.322;2023-02-18T10:38:59;102087.59;;;21.16;nan
56518;BME280;42419;48.760;2.322;2023-02-18T10:44:29;102065.41;;;21.09;nan
56518;BME280;42419;48.760;2.322;2023-02-18T10:47:28;102091.94;;;21.20;nan
56518;BME280;42419;48.760;2.322;2023-02-18T10:50:07;102093.69;;;21.23;nan
56518;BME280;42419;48.760;2.322;2023-02-18T10:52:39;102074.22;;;21.15;nan
56518;BME280;42419;48.760;2.322;2023-02-18T10:55:08;102076.72;;;21.24;nan
56518;BME280;42419;48.760;2.322;2023-02-18T10:57:34;102080.22;;;21.26;nan
56518;BME280;42419;48.760;2.322;2023-02-18T11:00:18;102092.72;;;21.27;nan
56518;BME280;42419;48.760;2.322;2023-02-18T11:02:45;102085.44;;;21.32;nan
56518;BME280;42419;48.760;2.322;2023-02-18T11:05:25;102088.97;;;21.34;nan
56518;BME280;42419;48.760;2.322;2023-02-18T11:07:53;102080.88;;;21.37;nan
56518;BME280;42419;48.760;2.322;2023-02-18T11:10:30;102083.56;;;21.35;nan
56518;BME280;42419;48.760;2.322;2023-02-18T11:13:00;102063.25;;;21.25;nan
56518;BME280;42419;48.760;2.322;2023-02-18T11:15:27;102082.69;;;21.35;nan
56518;BME280;42419;48.760;2.322;2023-02-18T11:18:11;102073.97;;;21.25;nan
56518;BME280;42419;48.760;2.322;2023-02-18T11:20:38;102081.03;;;21.29;nan
56518;BME280;42419;48.760;2.322;2023-02-18T11:25:36;102085.59;;;21.26;nan
56518;BME280;42419;48.760;2.322;2023-02-18T11:28:38;102077.44;;;21.30;nan
56518;BME280;42419;48.760;2.322;2023-02-18T11:31:05;102045.78;;;21.07;nan
56518;BME280;42419;48.760;2.322;2023-02-18T11:33:38;102088.16;;;21.30;nan
56518;BME280;42419;48.760;2.322;2023-02-18T11:36:20;102061.56;;;21.21;nan
56518;BME280;42419;48.760;2.322;2023-02-18T11:41:36;102077.41;;;21.32;nan
56518;BME280;42419;48.760;2.322;2023-02-18T11:44:05;102076.41;;;21.36;nan
56518;BME280;42419;48.760;2.322;2023-02-18T11:46:32;102071.84;;;21.41;nan
56518;BME280;42419;48.760;2.322;2023-02-18T11:49:19;102054.19;;;21.32;nan
56518;BME280;42419;48.760;2.322;2023-02-18T11:51:47;102076.22;;;21.43;nan
56518;BME280;42419;48.760;2.322;2023-02-18T11:54:27;102068.22;;;21.42;nan
56518;BME280;42419;48.760;2.322;2023-02-18T11:57:01;102068.09;;;21.48;nan
56518;BME280;42419;48.760;2.322;2023-02-18T11:59:29;102058.34;;;21.44;nan
56518;BME280;42419;48.760;2.322;2023-02-18T12:02:05;102067.03;;;21.55;nan
56518;BME280;42419;48.760;2.322;2023-02-18T12:05:04;102057.09;;;21.59;nan
56518;BME280;42419;48.760;2.322;2023-02-18T12:07:49;102056.19;;;21.60;nan
56518;BME280;42419;48.760;2.322;2023-02-18T12:10:22;102052.53;;;21.62;nan
56518;BME280;42419;48.760;2.322;2023-02-18T12:12:55;102049.91;;;21.61;nan
56518;BME280;42419;48.760;2.322;2023-02-18T12:15:31;102043.72;;;21.59;nan
56518;BME280;42419;48.760;2.322;2023-02-18T12:18:13;102056.00;;;21.67;nan
56518;BME280;42419;48.760;2.322;2023-02-18T12:20:53;102053.31;;;21.67;nan
56518;BME280;42419;48.760;2.322;2023-02-18T12:23:45;102055.09;;;21.68;nan
56518;BME280;42419;48.760;2.322;2023-02-18T12:26:28;102052.28;;;21.73;nan
56518;BME280;42419;48.760;2.322;2023-02-18T12:32:28;102042.41;;;21.73;nan
56518;BME280;42419;48.760;2.322;2023-02-18T12:49:09;102015.13;;;21.93;nan
56518;BME280;42419;48.760;2.322;2023-02-18T12:51:52;102023.16;;;21.94;nan
56518;BME280;42419;48.760;2.322;2023-02-18T13:08:48;102001.13;;;22.14;nan
56518;BME280;42419;48.760;2.322;2023-02-18T13:11:41;102013.63;;;22.15;nan
56518;BME280;42419;48.760;2.322;2023-02-18T13:16:43;101994.81;;;22.17;nan
56518;BME280;42419;48.760;2.322;2023-02-18T13:21:46;101992.16;;;22.15;nan
56518;BME280;42419;48.760;2.322;2023-02-18T13:24:20;101975.38;;;22.09;nan
56518;BME280;42419;48.760;2.322;2023-02-18T13:26:47;101989.22;;;22.24;nan
56518;BME280;42419;48.760;2.322;2023-02-18T13:29:28;101983.75;;;22.27;nan
56518;BME280;42419;48.760;2.322;2023-02-18T13:40:04;101965.91;;;22.26;nan
56518;BME280;42419;48.760;2.322;2023-02-18T13:42:37;101966.78;;;22.27;nan
56518;BME280;42419;48.760;2.322;2023-02-18T13:45:22;101958.72;;;22.27;nan
56518;BME280;42419;48.760;2.322;2023-02-18T13:47:48;101978.19;;;22.35;nan
56518;BME280;42419;48.760;2.322;2023-02-18T13:50:24;101977.31;;;22.34;nan
56518;BME280;42419;48.760;2.322;2023-02-18T13:55:40;101953.41;;;22.25;nan
56518;BME280;42419;48.760;2.322;2023-02-18T13:58:36;101982.69;;;22.33;nan
56518;BME280;42419;48.760;2.322;2023-02-18T14:01:14;101967.59;;;22.30;nan
56518;BME280;42419;48.760;2.322;2023-02-18T14:08:44;101967.53;;;22.32;nan
56518;BME280;42419;48.760;2.322;2023-02-18T14:13:49;101955.91;;;22.31;nan
56518;BME280;42419;48.760;2.322;2023-02-18T14:16:18;101956.03;;;22.27;nan
56518;BME280;42419;48.760;2.322;2023-02-18T14:23:38;101956.97;;;22.26;nan
56518;BME280;42419;48.760;2.322;2023-02-18T14:26:08;101930.34;;;22.18;nan
56518;BME280;42419;48.760;2.322;2023-02-18T14:31:05;101939.03;;;22.28;nan
56518;BME280;42419;48.760;2.322;2023-02-18T14:36:41;101928.38;;;22.25;nan
56518;BME280;42419;48.760;2.322;2023-02-18T14:42:02;101941.53;;;22.34;nan
56518;BME280;42419;48.760;2.322;2023-02-18T14:45:04;101947.81;;;22.33;nan
56518;BME280;42419;48.760;2.322;2023-02-18T14:48:02;101937.13;;;22.31;nan
56518;BME280;42419;48.760;2.322;2023-02-18T14:50:34;101937.19;;;22.30;nan
56518;BME280;42419;48.760;2.322;2023-02-18T14:53:11;101940.69;;;22.32;nan
56518;BME280;42419;48.760;2.322;2023-02-18T14:55:47;101932.69;;;22.30;nan
56518;BME280;42419;48.760;2.322;2023-02-18T15:00:40;101915.22;;;22.17;nan
56518;BME280;42419;48.760;2.322;2023-02-18T15:03:17;101916.69;;;22.27;nan
56518;BME280;42419;48.760;2.322;2023-02-18T15:05:45;101933.66;;;22.28;nan
56518;BME280;42419;48.760;2.322;2023-02-18T15:10:45;101918.56;;;22.24;nan
56518;BME280;42419;48.760;2.322;2023-02-18T15:13:36;101907.97;;;22.19;nan